Time;durP1;ratioP1;P1;durP2;ratioP2;P2;SDS_P1;SDS_P2;PMS_P1;PMS_P2;Temp;Humidity;BMP_temperature;BMP_pressure;BME280_temperature;BME280_humidity;BME280_pressure;Samples;Min_cycle;Max_cycle;Signal;HPM_P1;HPM_P2
2024/02/09 00:00:19;;;;;;;;;;;8.10;99.90;;;;;;5057582;28;20466;-69
2024/02/09 00:02:45;;;;;;;35.20;18.35;;;8.10;99.90;;;;;;5076171;28;19905;-68
2024/02/09 00:05:12;;;;;;;;;;;8.10;99.90;;;;;;5074908;28;20029;-68
2024/02/09 00:07:38;;;;;;;29.33;15.57;;;8.00;99.90;;;;;;5071678;28;19916;-68
2024/02/09 00:10:06;;;;;;;;;;;8.00;99.90;;;;;;5053993;28;20029;-67
2024/02/09 00:12:34;;;;;;;37.78;18.10;;;8.00;99.90;;;;;;5071480;28;19955;-67
2024/02/09 00:15:04;;;;;;;40.72;17.38;;;8.00;99.90;;;;;;5071256;28;20025;-68
2024/02/09 00:17:32;;;;;;;33.95;17.27;;;8.00;99.90;;;;;;5071410;28;20048;-68
2024/02/09 00:19:58;;;;;;;27.05;13.63;;;8.00;99.90;;;;;;5071168;28;20032;-66
2024/02/09 00:22:25;;;;;;;26.60;12.75;;;7.90;99.90;;;;;;5071046;28;20028;-67
2024/02/09 00:24:50;;;;;;;23.92;12.05;;;8.00;99.90;;;;;;5071312;28;20043;-67
2024/02/09 00:27:16;;;;;;;;;;;7.90;99.90;;;;;;5071472;28;20040;-68
2024/02/09 00:29:42;;;;;;;28.45;13.32;;;7.90;99.90;;;;;;5071128;28;19908;-68
2024/02/09 00:32:08;;;;;;;22.48;12.00;;;7.80;99.90;;;;;;5053064;28;20043;-68
2024/02/09 00:34:34;;;;;;;;;;;7.80;99.90;;;;;;5071606;28;20036;-68
2024/02/09 00:37:01;;;;;;;23.70;11.82;;;7.70;99.90;;;;;;5071024;28;20586;-67
2024/02/09 00:39:30;;;;;;;21.23;10.35;;;7.60;99.90;;;;;;5046778;28;20421;-68
2024/02/09 00:41:55;;;;;;;20.60;11.73;;;7.60;99.90;;;;;;5052030;28;20028;-68
2024/02/09 00:44:22;;;;;;;;;;;7.60;99.90;;;;;;5070985;28;20513;-67
2024/02/09 00:46:50;;;;;;;24.93;14.20;;;7.50;99.90;;;;;;5070653;28;19917;-67
2024/02/09 00:49:15;;;;;;;25.85;12.77;;;7.40;99.90;;;;;;5069809;28;20024;-68
2024/02/09 00:51:41;;;;;;;;;;;7.40;99.90;;;;;;5052785;28;20035;-68
2024/02/09 00:54:07;;;;;;;25.35;13.07;;;7.30;99.90;;;;;;5052222;28;20015;-68
2024/02/09 00:56:33;;;;;;;;;;;7.20;99.90;;;;;;5071010;28;20469;-68
2024/02/09 00:59:00;;;;;;;23.20;12.70;;;7.20;99.90;;;;;;5069398;28;19912;-68
2024/02/09 01:01:26;;;;;;;20.33;10.90;;;7.10;99.90;;;;;;5052474;28;20396;-68
2024/02/09 01:03:53;;;;;;;;;;;7.00;99.90;;;;;;5071197;28;20473;-68
2024/02/09 01:06:21;;;;;;;19.20;10.63;;;6.90;99.90;;;;;;5070501;28;19963;-67
2024/02/09 01:08:47;;;;;;;23.85;11.07;;;6.90;99.90;;;;;;5070527;28;20040;-67
2024/02/09 01:11:13;;;;;;;;;;;6.90;99.90;;;;;;5070709;28;20409;-68
2024/02/09 02:46:28;;;;;;;22.52;9.70;;;6.30;99.90;;;;;;5063978;28;20003;-68
2024/02/09 03:05:26;;;;;;;20.13;9.07;;;5.80;99.90;;;;;;5068175;28;20136;-68
2024/02/09 03:07:53;;;;;;;17.92;9.10;;;5.80;99.90;;;;;;5071271;28;20048;-68
2024/02/09 03:10:20;;;;;;;16.65;8.55;;;5.70;99.90;;;;;;5071613;28;20397;-67
2024/02/09 03:12:46;;;;;;;18.80;9.73;;;5.70;99.90;;;;;;5054069;28;20058;-68
2024/02/09 03:15:11;;;;;;;;;;;5.70;99.90;;;;;;5071023;28;20572;-68
2024/02/09 03:17:40;;;;;;;17.33;8.60;;;5.70;99.90;;;;;;5055324;28;20637;-69
2024/02/09 03:20:07;;;;;;;19.77;7.80;;;5.70;99.90;;;;;;5034933;28;20036;-67
2024/02/09 03:22:34;;;;;;;15.77;7.55;;;5.60;99.90;;;;;;5054061;28;20512;-66
2024/02/09 03:25:03;;;;;;;17.65;7.95;;;5.60;99.90;;;;;;5052450;28;20048;-68
2024/02/09 03:27:33;;;;;;;19.33;9.73;;;5.60;99.90;;;;;;5056661;28;20091;-70
2024/02/09 03:29:59;;;;;;;17.75;8.63;;;5.60;99.90;;;;;;5039907;28;20037;-69
2024/02/09 03:32:29;;;;;;;14.35;7.07;;;5.60;99.90;;;;;;5054560;28;20032;-68
2024/02/09 03:34:55;;;;;;;14.40;8.07;;;5.60;99.90;;;;;;5034383;28;20029;-67
2024/02/09 03:37:26;;;;;;;15.35;7.50;;;5.60;99.90;;;;;;5052277;28;20052;-67
2024/02/09 03:40:04;;;;;;;19.52;8.98;;;5.50;99.90;;;;;;5052276;28;20151;-68
2024/02/09 03:42:30;;;;;;;17.38;7.95;;;5.40;99.90;;;;;;5052036;28;20497;-68
2024/02/09 03:44:57;;;;;;;;;;;5.40;99.90;;;;;;5034479;28;20385;-68
2024/02/09 03:47:25;;;;;;;24.20;7.90;;;5.30;99.90;;;;;;5051836;28;19924;-68
2024/02/09 03:49:54;;;;;;;12.57;6.93;;;5.30;99.90;;;;;;5033879;28;20179;-68
2024/02/09 03:52:21;;;;;;;16.27;7.10;;;5.30;99.90;;;;;;5034006;28;20025;-68
2024/02/09 03:54:51;;;;;;;13.88;7.68;;;5.30;99.90;;;;;;5051832;28;20029;-68
2024/02/09 03:57:24;;;;;;;23.42;8.20;;;5.30;99.90;;;;;;5033837;28;20045;-68
2024/02/09 03:59:50;;;;;;;25.73;9.30;;;5.30;99.90;;;;;;5033592;28;20025;-68
2024/02/09 04:02:17;;;;;;;18.52;8.93;;;5.20;99.90;;;;;;5051476;28;20029;-67
2024/02/09 04:04:43;;;;;;;17.75;8.02;;;5.20;99.90;;;;;;5051665;28;20028;-67
2024/02/09 04:07:10;;;;;;;20.85;8.30;;;5.20;99.90;;;;;;5051538;28;20037;-68
2024/02/09 04:09:36;;;;;;;18.55;9.10;;;5.20;99.90;;;;;;5033514;28;20508;-68
2024/02/09 04:12:02;;;;;;;18.70;8.65;;;5.20;99.90;;;;;;5033748;28;20065;-68
2024/02/09 04:14:28;;;;;;;17.95;9.25;;;5.20;99.90;;;;;;5051396;28;20435;-68
2024/02/09 04:16:55;;;;;;;21.95;9.13;;;5.20;99.90;;;;;;5034299;28;20024;-69
2024/02/09 04:19:22;;;;;;;18.90;8.88;;;5.20;99.90;;;;;;5051761;28;20013;-67
2024/02/09 04:21:47;;;;;;;18.42;9.75;;;5.20;99.90;;;;;;5051235;28;20039;-68
2024/02/09 04:24:14;;;;;;;;;;;5.30;99.90;;;;;;5051535;28;20060;-68
2024/02/09 04:26:40;;;;;;;19.87;9.53;;;5.30;99.90;;;;;;5051112;28;20019;-68
2024/02/09 04:29:05;;;;;;;;;;;5.30;99.90;;;;;;5051613;28;20342;-68
2024/02/09 04:31:31;;;;;;;25.13;9.38;;;5.30;99.90;;;;;;5051090;28;19909;-68
2024/02/09 04:33:57;;;;;;;;;;;5.30;99.90;;;;;;5051454;28;20490;-68
2024/02/09 04:36:23;;;;;;;67.43;27.50;;;5.30;99.90;;;;;;5051039;28;20405;-66
2024/02/09 04:38:48;;;;;;;;;;;5.20;99.90;;;;;;5051411;28;20154;-68
2024/02/09 04:41:16;;;;;;;52.05;21.90;;;5.20;99.90;;;;;;5050805;28;19996;-68
2024/02/09 04:43:43;;;;;;;27.88;13.63;;;5.20;99.90;;;;;;5050761;28;20501;-68
2024/02/09 04:46:09;;;;;;;22.23;11.63;;;5.20;99.90;;;;;;5050692;28;20024;-68
2024/02/09 04:48:34;;;;;;;;;;;5.20;99.90;;;;;;5051123;28;20041;-67
2024/02/09 04:51:05;;;;;;;23.52;9.43;;;5.20;99.90;;;;;;5050595;28;20289;-67
2024/02/09 04:53:30;;;;;;;21.08;10.25;;;5.20;99.90;;;;;;5032689;28;20025;-68
2024/02/09 04:55:56;;;;;;;;;;;5.10;99.90;;;;;;5051140;28;20551;-69
2024/02/09 04:58:21;;;;;;;24.67;11.85;;;5.10;99.90;;;;;;5050504;28;19908;-68
2024/02/09 05:00:49;;;;;;;;;;;5.10;99.90;;;;;;5050859;28;20028;-68
2024/02/09 05:03:17;;;;;;;30.75;15.15;;;5.10;99.90;;;;;;5050286;28;20313;-68
2024/02/09 05:05:44;;;;;;;30.30;14.65;;;5.20;99.90;;;;;;5050550;28;20029;-67
2024/02/09 05:08:09;;;;;;;33.03;12.88;;;5.20;99.90;;;;;;5050221;28;20510;-68
2024/02/09 05:10:39;;;;;;;;;;;5.20;99.90;;;;;;5050787;28;20028;-66
2024/02/09 05:13:07;;;;;;;24.88;11.57;;;5.20;99.90;;;;;;5050330;28;19905;-68
2024/02/09 05:15:36;;;;;;;23.08;11.07;;;5.20;99.90;;;;;;5050248;28;20560;-68
2024/02/09 05:18:02;;;;;;;20.88;10.95;;;5.30;99.90;;;;;;5050347;28;20551;-68
2024/02/09 05:20:28;;;;;;;;;;;5.30;99.90;;;;;;5050759;28;20021;-68
2024/02/09 05:22:53;;;;;;;31.92;12.85;;;5.20;99.90;;;;;;5050221;28;19975;-68
2024/02/09 05:25:20;;;;;;;;;;;5.30;99.90;;;;;;5032747;28;20531;-68
2024/02/09 05:27:48;;;;;;;53.42;19.90;;;5.30;99.90;;;;;;5050142;28;20381;-68
2024/02/09 05:30:13;;;;;;;41.95;15.70;;;5.30;99.90;;;;;;5049826;28;20501;-68
2024/02/09 05:32:41;;;;;;;;;;;5.30;99.90;;;;;;5050643;28;20039;-69
2024/02/09 05:35:08;;;;;;;22.02;10.25;;;5.40;99.90;;;;;;5050490;28;19942;-68
2024/02/09 05:37:33;;;;;;;21.48;9.15;;;5.40;99.90;;;;;;5033137;28;20054;-68
2024/02/09 05:40:00;;;;;;;;;;;5.40;99.90;;;;;;5049712;28;20035;-68
2024/02/09 05:42:26;;;;;;;16.13;7.95;;;5.40;99.90;;;;;;5049762;28;19904;-68
2024/02/09 05:44:52;;;;;;;;;;;5.40;99.90;;;;;;5032313;28;20032;-69
2024/02/09 05:47:17;;;;;;;17.48;8.60;;;5.40;99.90;;;;;;5049676;28;19970;-68
2024/02/09 05:49:43;;;;;;;;;;;5.40;99.90;;;;;;5032187;28;20113;-68
2024/02/09 05:52:10;;;;;;;27.85;13.98;;;5.40;99.90;;;;;;5049652;28;20430;-69
2024/02/09 05:54:36;;;;;;;37.95;16.55;;;5.40;99.90;;;;;;5049674;28;20036;-68
2024/02/09 05:57:02;;;;;;;;;;;5.40;99.90;;;;;;5049994;28;20025;-68
2024/02/09 05:59:28;;;;;;;31.63;15.20;;;5.40;99.90;;;;;;5049461;28;20376;-68
2024/02/09 06:01:54;;;;;;;;;;;5.40;99.90;;;;;;5049970;28;20092;-69
2024/02/09 06:04:21;;;;;;;23.80;12.90;;;5.50;99.90;;;;;;5031697;28;19924;-66
2024/02/09 06:06:47;;;;;;;40.22;18.50;;;5.40;99.90;;;;;;5049216;28;20033;-68
2024/02/09 06:09:13;;;;;;;;;;;5.50;99.90;;;;;;5048406;28;20076;-67
2024/02/09 06:11:38;;;;;;;30.85;12.85;;;5.50;99.90;;;;;;5049119;28;19911;-68
2024/02/09 06:14:04;;;;;;;;;;;5.50;99.90;;;;;;5048319;28;20044;-67
2024/02/09 06:16:31;;;;;;;19.35;8.85;;;5.50;99.90;;;;;;5049186;28;19936;-68
2024/02/09 06:18:57;;;;;;;16.05;8.45;;;5.50;99.90;;;;;;5049131;28;20087;-66
2024/02/09 06:21:22;;;;;;;;;;;5.60;99.90;;;;;;5049514;28;20024;-69
2024/02/09 06:23:49;;;;;;;13.75;7.15;;;5.70;99.90;;;;;;5048783;28;20015;-67
2024/02/09 06:26:18;;;;;;;11.63;6.18;;;5.70;99.90;;;;;;5048932;28;20079;-67
2024/02/09 06:28:47;;;;;;;31.52;14.70;;;5.70;99.90;;;;;;5049542;28;20029;-68
2024/02/09 06:31:17;;;;;;;35.00;16.15;;;5.80;99.90;;;;;;5049436;28;20104;-66
2024/02/09 06:33:46;;;;;;;25.08;11.75;;;5.80;99.90;;;;;;5047604;28;20044;-67
2024/02/09 06:36:11;;;;;;;22.15;10.68;;;5.90;99.90;;;;;;5048908;28;20024;-68
2024/02/09 06:38:41;;;;;;;;;;;5.90;99.90;;;;;;5049572;28;20029;-69
2024/02/09 06:41:09;;;;;;;38.40;14.82;;;5.90;99.90;;;;;;5052441;28;20094;-68
2024/02/09 06:43:38;;;;;;;46.30;18.77;;;5.90;99.90;;;;;;5051616;28;20528;-68
2024/02/09 06:46:04;;;;;;;39.72;19.70;;;5.90;99.90;;;;;;5050782;28;20029;-68
2024/02/09 06:48:30;;;;;;;30.40;14.27;;;6.00;99.90;;;;;;5051529;28;20044;-71
2024/02/09 06:50:58;;;;;;;;;;;6.00;99.90;;;;;;5052244;28;20029;-68
2024/02/09 06:53:25;;;;;;;31.42;15.98;;;6.00;99.90;;;;;;5031024;28;19909;-66
2024/02/09 06:55:52;;;;;;;39.03;18.77;;;6.00;99.90;;;;;;5047618;28;20025;-66
2024/02/09 06:58:23;;;;;;;41.33;21.60;;;6.10;99.90;;;;;;5048510;28;20032;-67
2024/02/09 07:00:52;;;;;;;39.03;18.58;;;6.10;99.90;;;;;;5047241;28;20025;-67
2024/02/09 07:03:18;;;;;;;36.40;16.77;;;6.10;99.90;;;;;;5048392;28;20060;-68
2024/02/09 07:05:45;;;;;;;39.67;17.15;;;6.20;99.90;;;;;;5048497;28;20025;-67
2024/02/09 07:08:11;;;;;;;35.65;15.18;;;6.30;99.90;;;;;;5030560;28;20033;-68
2024/02/09 07:10:36;;;;;;;;;;;6.40;99.90;;;;;;5031227;28;20366;-66
2024/02/09 07:13:02;;;;;;;31.98;15.10;;;6.40;99.90;;;;;;5048465;28;19916;-68
2024/02/09 07:15:29;;;;;;;;;;;6.50;99.90;;;;;;5048840;28;20029;-69
2024/02/09 07:17:56;;;;;;;20.77;9.30;;;6.60;99.90;;;;;;5048230;28;20004;-68
2024/02/09 07:20:23;;;;;;;15.20;8.75;;;6.60;99.90;;;;;;5048220;28;20029;-66
2024/02/09 07:22:48;;;;;;;17.58;8.52;;;6.70;99.90;;;;;;5048179;28;20553;-67
2024/02/09 07:25:14;;;;;;;;;;;6.80;99.90;;;;;;5048816;28;20175;-69
2024/02/09 07:27:39;;;;;;;24.95;10.55;;;6.90;99.90;;;;;;5048116;28;19916;-68
2024/02/09 07:30:05;;;;;;;;;;;7.00;99.90;;;;;;5048574;28;20111;-68
2024/02/09 07:32:32;;;;;;;32.03;15.73;;;7.10;99.90;;;;;;5030589;28;19908;-68
2024/02/09 07:34:57;;;;;;;;;;;7.30;99.90;;;;;;5048518;28;20033;-68
2024/02/09 07:37:24;;;;;;;28.40;12.38;;;7.40;99.90;;;;;;5048168;28;19908;-68
2024/02/09 07:39:50;;;;;;;28.63;13.73;;;7.70;99.90;;;;;;5048277;28;20052;-68
2024/02/09 07:42:17;;;;;;;;;;;8.00;99.90;;;;;;5048635;28;20049;-68
2024/02/09 07:44:43;;;;;;;41.55;18.05;;;8.30;99.90;;;;;;5048142;28;20369;-68
2024/02/09 07:47:09;;;;;;;;;;;8.60;99.90;;;;;;5048534;28;20176;-67
2024/02/09 07:49:35;;;;;;;32.22;16.73;;;8.90;99.90;;;;;;5030014;28;20443;-67
2024/02/09 07:52:01;;;;;;;;;;;9.20;99.90;;;;;;5048615;28;20029;-68
2024/02/09 07:54:27;;;;;;;29.15;16.05;;;9.30;99.90;;;;;;5051806;28;19920;-68
2024/02/09 07:56:53;;;;;;;38.25;18.48;;;9.50;99.90;;;;;;5050701;28;20595;-68
2024/02/09 07:59:19;;;;;;;;;;;9.60;99.90;;;;;;5052677;28;20094;-68
2024/02/09 08:01:46;;;;;;;31.85;16.77;;;9.70;99.90;;;;;;5052017;28;19948;-68
2024/02/09 08:04:12;;;;;;;31.95;17.02;;;9.70;99.90;;;;;;5051848;28;20028;-68
2024/02/09 08:06:38;;;;;;;34.60;18.30;;;9.70;99.90;;;;;;5034106;28;20119;-68
2024/02/09 08:09:04;;;;;;;;;;;9.70;99.90;;;;;;5051231;28;20174;-69
2024/02/09 08:11:30;;;;;;;35.42;19.25;;;9.60;99.90;;;;;;5051803;28;19908;-74
2024/02/09 08:13:57;;;;;;;;;;;9.50;99.90;;;;;;5052795;28;20388;-70
2024/02/09 08:16:23;;;;;;;35.00;18.75;;;9.40;99.90;;;;;;5054548;28;19905;-68
2024/02/09 08:18:50;;;;;;;34.33;16.92;;;9.40;99.90;;;;;;5053457;28;20059;-66
2024/02/09 08:21:22;;;;;;;33.50;15.27;;;9.30;99.90;;;;;;5051668;28;20025;-69
2024/02/09 08:23:47;;;;;;;26.27;12.32;;;9.30;99.90;;;;;;5051272;28;20140;-68
2024/02/09 08:26:13;;;;;;;;;;;9.20;99.90;;;;;;5051581;28;20108;-68
2024/02/09 08:28:43;;;;;;;22.90;12.48;;;9.20;99.90;;;;;;5051234;28;19975;-68
2024/02/09 08:31:16;;;;;;;30.80;10.38;;;9.20;99.90;;;;;;5051093;28;20112;-69
2024/02/09 08:33:47;;;;;;;20.30;9.95;;;9.40;99.90;;;;;;5033213;28;20120;-68
2024/02/09 08:36:17;;;;;;;22.13;8.15;;;9.40;99.90;;;;;;5051129;28;20025;-69
2024/02/09 08:38:44;;;;;;;16.30;7.18;;;9.60;99.90;;;;;;5051048;28;20037;-68
2024/02/09 08:41:10;;;;;;;13.70;6.47;;;9.80;99.90;;;;;;5051037;28;20029;-69
2024/02/09 08:43:35;;;;;;;;;;;9.90;99.90;;;;;;5051283;28;20039;-67
2024/02/09 08:46:02;;;;;;;15.50;5.00;;;10.00;99.90;;;;;;5050788;28;19909;-67
2024/02/09 08:48:28;;;;;;;10.77;4.70;;;10.20;99.90;;;;;;5050941;28;20040;-68
2024/02/09 08:50:53;;;;;;;;;;;10.50;99.90;;;;;;5051195;28;20096;-68
2024/02/09 08:53:19;;;;;;;10.48;3.72;;;10.80;99.90;;;;;;5050768;28;20034;-69
2024/02/09 08:55:44;;;;;;;;;;;11.20;99.90;;;;;;5033023;28;20119;-68
2024/02/09 08:58:10;;;;;;;12.63;3.53;;;11.70;99.90;;;;;;5050635;28;20696;-69
2024/02/09 09:00:36;;;;;;;;;;;12.20;99.90;;;;;;5051012;28;20025;-69
2024/02/09 09:03:01;;;;;;;10.63;3.47;;;12.70;99.90;;;;;;5032102;28;19915;-68
2024/02/09 09:05:27;;;;;;;;;;;13.00;99.90;;;;;;5050801;28;20029;-68
2024/02/09 09:07:54;;;;;;;9.55;3.38;;;13.10;99.90;;;;;;5050413;28;19916;-68
2024/02/09 09:10:20;;;;;;;17.05;3.70;;;13.20;99.90;;;;;;5050241;28;20033;-69
2024/02/09 09:12:46;;;;;;;;;;;13.20;99.90;;;;;;5050723;28;20405;-69
2024/02/09 09:15:12;;;;;;;17.07;4.67;;;13.20;99.90;;;;;;5050353;28;20351;-69
2024/02/09 09:17:38;;;;;;;12.45;4.30;;;13.00;99.90;;;;;;5050478;28;20259;-68
2024/02/09 09:20:05;;;;;;;;;;;12.90;99.90;;;;;;5050306;28;20033;-69
2024/02/09 09:22:31;;;;;;;12.75;3.67;;;12.80;99.90;;;;;;5050017;28;19913;-68
2024/02/09 09:24:56;;;;;;;9.93;3.45;;;12.80;99.90;;;;;;5049965;28;20128;-68
2024/02/09 09:27:23;;;;;;;;;;;12.80;99.90;;;;;;5050323;28;20635;-68
2024/02/09 09:29:52;;;;;;;9.13;3.42;;;13.00;99.90;;;;;;5048626;28;19995;-69
2024/02/09 09:32:20;;;;;;;11.02;3.63;;;13.40;99.90;;;;;;5049946;28;20056;-68
2024/02/09 09:34:46;;;;;;;10.48;3.35;;;13.70;98.90;;;;;;5049864;28;20021;-69
2024/02/09 09:37:11;;;;;;;7.20;3.47;;;13.90;97.50;;;;;;5049860;28;20025;-69
2024/02/09 09:39:37;;;;;;;10.57;3.33;;;13.90;96.70;;;;;;5049911;28;20404;-69
2024/02/09 09:42:03;;;;;;;;;;;13.90;95.60;;;;;;5032411;28;20079;-68
2024/02/09 09:44:29;;;;;;;14.98;4.15;;;13.80;95.40;;;;;;5049752;28;20387;-68
2024/02/09 09:46:57;;;;;;;13.48;4.32;;;13.60;95.20;;;;;;5049526;28;20493;-69
2024/02/09 09:49:26;;;;;;;8.95;3.95;;;13.30;95.90;;;;;;5049694;28;20032;-68
2024/02/09 09:51:55;;;;;;;14.27;3.83;;;13.00;96.60;;;;;;5031707;28;20398;-67
2024/02/09 09:54:22;;;;;;;10.52;4.13;;;12.70;97.70;;;;;;5031866;28;20537;-69
2024/02/09 09:56:52;;;;;;;13.10;4.28;;;12.50;98.30;;;;;;5031955;28;20029;-68
2024/02/09 09:59:19;;;;;;;13.00;4.70;;;12.40;98.70;;;;;;5049415;28;20595;-68
2024/02/09 10:01:48;;;;;;;11.45;4.63;;;12.20;99.50;;;;;;5049579;28;20036;-70
2024/02/09 10:04:14;;;;;;;9.48;4.78;;;12.20;99.90;;;;;;5049605;28;20822;-67
2024/02/09 10:06:40;;;;;;;11.38;5.22;;;12.10;99.90;;;;;;5049264;28;20037;-68
2024/02/09 10:09:08;;;;;;;;;;;12.00;99.90;;;;;;5049798;28;20079;-70
2024/02/09 10:11:35;;;;;;;17.52;5.22;;;11.90;99.90;;;;;;5049447;28;20003;-70
2024/02/09 10:14:01;;;;;;;15.25;6.38;;;11.80;99.90;;;;;;5049213;28;20098;-70
2024/02/09 10:16:26;;;;;;;;;;;11.70;99.90;;;;;;5049467;28;20144;-70
2024/02/09 10:18:52;;;;;;;13.68;5.05;;;11.60;99.90;;;;;;5049084;28;20563;-68
2024/02/09 10:21:18;;;;;;;;;;;11.60;99.90;;;;;;5049500;28;20025;-70
2024/02/09 10:23:47;;;;;;;11.02;5.07;;;11.50;99.90;;;;;;5048998;28;19917;-70
2024/02/09 10:26:13;;;;;;;15.05;5.10;;;11.40;99.90;;;;;;5048809;28;20028;-68
2024/02/09 10:28:39;;;;;;;10.95;4.50;;;11.30;99.90;;;;;;5048784;28;20029;-67
2024/02/09 10:31:05;;;;;;;;;;;11.30;99.90;;;;;;5049363;28;20037;-68
2024/02/09 10:33:31;;;;;;;25.23;8.93;;;11.20;99.90;;;;;;5030935;28;19915;-68
2024/02/09 10:35:56;;;;;;;;;;;11.10;99.90;;;;;;5048192;28;20029;-69
2024/02/09 10:38:27;;;;;;;14.18;6.75;;;11.10;99.90;;;;;;5048873;28;19915;-68
2024/02/09 10:40:56;;;;;;;14.30;6.75;;;11.00;99.90;;;;;;5048779;28;20486;-69
2024/02/09 10:43:23;;;;;;;12.45;5.72;;;10.90;99.90;;;;;;5048748;28;20087;-68
2024/02/09 10:45:51;;;;;;;11.25;5.57;;;11.00;99.90;;;;;;5048867;28;20033;-68
2024/02/09 10:48:21;;;;;;;15.43;6.80;;;10.90;99.90;;;;;;5030812;28;20136;-68
2024/02/09 10:50:48;;;;;;;43.45;20.25;;;10.80;99.90;;;;;;5048594;28;20031;-68
2024/02/09 10:53:22;;;;;;;15.95;6.97;;;10.80;99.90;;;;;;5047951;28;20043;-68
2024/02/09 10:55:59;;;;;;;11.00;5.32;;;10.90;99.90;;;;;;5049484;28;20033;-69
2024/02/09 10:58:25;;;;;;;16.90;7.40;;;10.80;99.90;;;;;;5050661;28;20037;-70
2024/02/09 11:00:51;;;;;;;;;;;10.70;99.90;;;;;;5049829;28;20032;-68
2024/02/09 11:03:18;;;;;;;13.95;7.53;;;10.60;99.90;;;;;;5048609;28;19999;-69
2024/02/09 11:05:43;;;;;;;21.65;11.80;;;10.60;99.90;;;;;;5048583;28;20493;-68
2024/02/09 11:08:09;;;;;;;;;;;10.50;99.90;;;;;;5014553;28;20048;-68
2024/02/09 11:10:35;;;;;;;21.40;9.70;;;10.50;99.90;;;;;;5048453;28;19911;-68
2024/02/09 11:13:01;;;;;;;;;;;10.50;99.90;;;;;;5048950;28;20460;-68
2024/02/09 11:15:34;;;;;;;13.98;6.70;;;10.50;99.90;;;;;;5030529;28;20516;-67
2024/02/09 11:18:01;;;;;;;32.65;16.67;;;10.40;99.90;;;;;;5048722;28;20028;-68
2024/02/09 11:20:26;;;;;;;29.20;19.35;;;10.50;99.90;;;;;;5048455;28;20033;-69
2024/02/09 11:22:53;;;;;;;;;;;10.50;99.90;;;;;;5048688;28;20037;-69
2024/02/09 11:25:19;;;;;;;21.02;10.07;;;10.50;99.90;;;;;;5048329;28;20429;-68
2024/02/09 11:27:49;;;;;;;;;;;10.50;99.90;;;;;;5050133;28;20131;-67
2024/02/09 11:30:15;;;;;;;33.33;17.75;;;10.40;99.90;;;;;;5052290;28;19991;-68
2024/02/09 11:32:40;;;;;;;;;;;10.50;99.90;;;;;;5052788;28;20107;-68
2024/02/09 11:35:06;;;;;;;25.35;10.93;;;10.60;99.90;;;;;;5051051;28;19909;-69
2024/02/09 11:37:32;;;;;;;;;;;10.60;99.90;;;;;;5052615;28;20025;-68
2024/02/09 11:39:58;;;;;;;16.40;7.88;;;10.60;99.90;;;;;;5052131;28;20384;-70
2024/02/09 11:42:24;;;;;;;21.20;9.60;;;10.60;99.90;;;;;;5051967;28;20036;-68
2024/02/09 11:44:50;;;;;;;;;;;10.60;99.90;;;;;;5052427;28;20033;-67
2024/02/09 11:47:17;;;;;;;54.72;24.13;;;10.70;99.90;;;;;;5051933;28;20022;-69
2024/02/09 11:49:43;;;;;;;46.88;21.85;;;10.70;99.90;;;;;;5052038;28;20044;-68
2024/02/09 11:52:09;;;;;;;42.90;22.92;;;10.70;99.90;;;;;;5051762;28;20071;-69
2024/02/09 11:54:35;;;;;;;;;;;10.70;99.90;;;;;;5052260;28;20487;-69
2024/02/09 11:57:01;;;;;;;60.05;25.52;;;10.70;99.90;;;;;;5051789;28;19912;-67
2024/02/09 11:59:28;;;;;;;;;;;10.80;99.90;;;;;;5052131;28;20029;-68
2024/02/09 12:01:54;;;;;;;54.72;25.25;;;10.80;99.90;;;;;;5051724;28;20388;-69
2024/02/09 12:04:20;;;;;;;;;;;10.80;99.90;;;;;;5050837;28;20079;-66
2024/02/09 12:06:47;;;;;;;20.98;8.43;;;10.80;99.90;;;;;;5051535;28;19908;-68
2024/02/09 12:09:13;;;;;;;19.73;7.57;;;10.80;99.90;;;;;;5051458;28;20021;-68
2024/02/09 12:11:39;;;;;;;16.23;6.80;;;10.80;99.90;;;;;;5051433;28;20025;-68
2024/02/09 12:14:05;;;;;;;;;;;10.80;99.90;;;;;;5034244;28;20036;-67
2024/02/09 12:16:30;;;;;;;40.70;22.73;;;10.80;99.90;;;;;;5051453;28;19934;-69
2024/02/09 12:18:59;;;;;;;;;;;10.80;99.90;;;;;;5051867;28;20021;-69
2024/02/09 12:21:25;;;;;;;30.02;14.25;;;10.80;99.90;;;;;;5051435;28;19970;-68
2024/02/09 12:23:53;;;;;;;30.05;17.48;;;10.80;99.90;;;;;;5051221;28;20484;-69
2024/02/09 12:26:20;;;;;;;40.42;22.50;;;10.90;99.90;;;;;;5051089;28;20485;-69
2024/02/09 12:28:46;;;;;;;32.90;19.63;;;10.90;99.90;;;;;;5051121;28;20067;-69
2024/02/09 12:31:12;;;;;;;;;;;10.80;99.90;;;;;;5051571;28;20064;-69
2024/02/09 12:33:45;;;;;;;136.93;62.22;;;10.90;99.90;;;;;;5051039;28;19909;-68
2024/02/09 12:36:13;;;;;;;28.58;13.75;;;10.90;99.90;;;;;;5049696;28;20029;-69
2024/02/09 12:38:40;;;;;;;34.35;20.48;;;11.00;99.90;;;;;;5049552;28;20028;-69
2024/02/09 12:41:12;;;;;;;29.92;14.57;;;11.10;99.90;;;;;;5050966;28;20032;-69
2024/02/09 12:43:38;;;;;;;17.50;9.70;;;11.10;99.90;;;;;;5050955;28;20154;-70
2024/02/09 12:46:06;;;;;;;;;;;11.10;99.90;;;;;;5051137;28;20144;-69
2024/02/09 12:48:36;;;;;;;29.65;7.97;;;11.00;99.90;;;;;;5050871;28;19917;-69
2024/02/09 12:51:04;;;;;;;22.88;13.82;;;11.10;99.90;;;;;;5050812;28;20029;-69
2024/02/09 12:53:31;;;;;;;16.52;9.95;;;11.10;99.90;;;;;;5050672;28;20033;-69
2024/02/09 12:55:57;;;;;;;20.17;8.18;;;11.10;99.90;;;;;;5050724;28;20433;-69
2024/02/09 12:58:23;;;;;;;18.67;7.43;;;11.10;99.90;;;;;;5050621;28;20037;-69
2024/02/09 13:00:49;;;;;;;;;;;11.10;99.90;;;;;;5050964;28;20017;-69
2024/02/09 13:03:15;;;;;;;13.68;5.32;;;11.10;99.90;;;;;;5050560;28;20436;-70
2024/02/09 13:05:41;;;;;;;;;;;11.10;99.90;;;;;;5033247;28;20028;-69
2024/02/09 13:08:06;;;;;;;42.38;9.35;;;11.10;99.90;;;;;;5050404;28;19962;-69
2024/02/09 13:10:33;;;;;;;;;;;11.10;99.90;;;;;;5051061;28;20029;-70
2024/02/09 13:13:06;;;;;;;22.13;9.63;;;11.10;99.90;;;;;;5050917;28;19916;-69
2024/02/09 13:15:37;;;;;;;24.73;9.75;;;11.10;99.90;;;;;;5050562;28;20040;-67
2024/02/09 13:18:07;;;;;;;20.27;10.48;;;11.20;99.90;;;;;;5051061;28;20024;-70
2024/02/09 13:20:36;;;;;;;25.85;12.25;;;11.20;99.90;;;;;;5050945;28;20032;-69
2024/02/09 13:23:02;;;;;;;43.13;21.23;;;11.20;99.90;;;;;;5050406;28;20093;-69
2024/02/09 13:25:33;;;;;;;45.10;21.50;;;11.20;99.90;;;;;;5050178;28;20033;-68
2024/02/09 13:27:59;;;;;;;61.47;27.42;;;11.20;99.90;;;;;;5032276;28;20500;-69
2024/02/09 13:30:28;;;;;;;55.63;25.15;;;11.30;99.90;;;;;;5032487;28;20494;-68
2024/02/09 13:32:54;;;;;;;50.97;23.63;;;11.20;99.90;;;;;;5050009;28;20520;-69
2024/02/09 13:35:20;;;;;;;47.17;22.83;;;11.20;99.90;;;;;;5032084;28;20033;-67
2024/02/09 13:37:46;;;;;;;;;;;11.20;99.90;;;;;;5050937;28;20086;-69
2024/02/09 13:40:16;;;;;;;57.30;26.50;;;11.30;99.90;;;;;;5050397;28;19905;-70
2024/02/09 13:42:47;;;;;;;36.53;16.83;;;11.20;99.90;;;;;;5049903;28;20029;-68
2024/02/09 13:45:14;;;;;;;33.28;15.10;;;11.10;99.90;;;;;;5032035;28;20036;-69
2024/02/09 13:47:40;;;;;;;38.40;17.60;;;11.10;99.90;;;;;;5049541;28;20029;-69
2024/02/09 13:50:10;;;;;;;;;;;11.10;99.90;;;;;;5048365;28;20035;-68
2024/02/09 13:52:39;;;;;;;29.60;14.43;;;11.10;99.90;;;;;;5031798;28;19909;-69
2024/02/09 13:55:09;;;;;;;32.65;17.17;;;11.10;99.90;;;;;;5049697;28;20025;-68
2024/02/09 13:57:35;;;;;;;32.97;20.10;;;11.10;99.90;;;;;;5049570;28;20346;-68
2024/02/09 14:00:07;;;;;;;;;;;11.10;99.90;;;;;;5049935;28;20500;-69
2024/02/09 14:02:33;;;;;;;25.23;12.55;;;11.20;99.90;;;;;;5049403;28;19904;-68
2024/02/09 14:05:00;;;;;;;;;;;11.10;99.90;;;;;;5048758;28;20579;-68
2024/02/09 14:07:26;;;;;;;28.00;12.55;;;11.20;99.90;;;;;;5049243;28;20305;-69
2024/02/09 14:09:51;;;;;;;;;;;11.10;99.90;;;;;;5049662;28;20037;-68
2024/02/09 14:12:17;;;;;;;23.70;12.80;;;11.10;99.90;;;;;;5049124;28;19997;-68
2024/02/09 14:14:43;;;;;;;31.45;13.63;;;11.10;99.90;;;;;;5048133;28;20021;-68
2024/02/09 14:17:11;;;;;;;;;;;11.10;99.90;;;;;;5048379;28;20029;-69
2024/02/09 14:19:36;;;;;;;38.88;18.90;;;11.10;99.90;;;;;;5047722;28;19905;-69
2024/02/09 14:22:04;;;;;;;;;;;11.10;99.90;;;;;;5049612;28;20670;-69
2024/02/09 14:24:31;;;;;;;29.73;15.60;;;11.10;99.90;;;;;;5047500;28;20309;-68
2024/02/09 14:26:58;;;;;;;31.45;14.88;;;11.10;99.90;;;;;;5048859;28;20075;-69
2024/02/09 14:29:24;;;;;;;47.03;17.98;;;11.10;99.90;;;;;;5047697;28;20025;-69
2024/02/09 14:31:51;;;;;;;56.60;32.30;;;11.20;99.90;;;;;;5049094;28;20053;-69
2024/02/09 14:34:16;;;;;;;;;;;11.20;99.90;;;;;;5049299;28;20072;-69
2024/02/09 14:36:42;;;;;;;186.93;91.13;;;11.10;99.90;;;;;;5030966;28;20361;-69
2024/02/09 14:39:07;;;;;;;305.90;152.98;;;11.20;99.90;;;;;;5048793;28;20033;-69
2024/02/09 14:41:37;;;;;;;;;;;11.10;99.90;;;;;;5049155;28;20444;-69
2024/02/09 14:44:03;;;;;;;307.45;154.55;;;11.10;99.90;;;;;;5048783;28;19952;-69
2024/02/09 14:46:28;;;;;;;;;;;11.10;99.90;;;;;;5049104;28;20065;-68
2024/02/09 14:48:54;;;;;;;288.23;142.77;;;11.00;99.90;;;;;;5048516;28;19913;-67